sensor_id;sensor_type;location;lat;lon;timestamp;P1;durP1;ratioP1;P2;durP2;ratioP2
42886;SDS011;29032;56.028;92.904;2023-04-24T00:02:47;5.97;;;4.60;;
42886;SDS011;29032;56.028;92.904;2023-04-24T00:07:49;6.70;;;4.03;;
42886;SDS011;29032;56.028;92.904;2023-04-24T00:12:51;10.43;;;5.17;;
42886;SDS011;29032;56.028;92.904;2023-04-24T00:17:55;12.37;;;5.00;;
42886;SDS011;29032;56.028;92.904;2023-04-24T00:22:57;10.47;;;4.83;;
42886;SDS011;29032;56.028;92.904;2023-04-24T00:28:17;8.40;;;4.70;;
42886;SDS011;29032;56.028;92.904;2023-04-24T00:33:20;22.97;;;5.17;;
42886;SDS011;29032;56.028;92.904;2023-04-24T00:43:43;12.30;;;4.67;;
42886;SDS011;29032;56.028;92.904;2023-04-24T00:48:46;6.10;;;4.50;;
42886;SDS011;29032;56.028;92.904;2023-04-24T00:53:48;7.67;;;4.87;;
42886;SDS011;29032;56.028;92.904;2023-04-24T01:09:32;11.50;;;6.00;;
42886;SDS011;29032;56.028;92.904;2023-04-24T01:14:36;8.13;;;5.20;;
42886;SDS011;29032;56.028;92.904;2023-04-24T01:19:40;9.57;;;4.77;;
42886;SDS011;29032;56.028;92.904;2023-04-24T01:24:43;10.70;;;5.70;;
42886;SDS011;29032;56.028;92.904;2023-04-24T01:30:04;11.63;;;5.80;;
42886;SDS011;29032;56.028;92.904;2023-04-24T01:35:07;11.10;;;5.33;;
42886;SDS011;29032;56.028;92.904;2023-04-24T01:40:11;15.30;;;6.77;;
42886;SDS011;29032;56.028;92.904;2023-04-24T01:45:32;12.70;;;6.53;;
42886;SDS011;29032;56.028;92.904;2023-04-24T01:50:35;15.67;;;6.03;;
42886;SDS011;29032;56.028;92.904;2023-04-24T01:55:40;19.50;;;6.73;;
42886;SDS011;29032;56.028;92.904;2023-04-24T02:00:42;16.80;;;6.37;;
42886;SDS011;29032;56.028;92.904;2023-04-24T02:05:44;9.73;;;5.80;;
42886;SDS011;29032;56.028;92.904;2023-04-24T02:10:47;10.17;;;6.10;;
42886;SDS011;29032;56.028;92.904;2023-04-24T02:21:46;10.20;;;5.63;;
42886;SDS011;29032;56.028;92.904;2023-04-24T02:26:50;12.50;;;6.57;;
42886;SDS011;29032;56.028;92.904;2023-04-24T02:31:52;11.27;;;6.27;;
42886;SDS011;29032;56.028;92.904;2023-04-24T02:36:54;10.20;;;6.83;;
42886;SDS011;29032;56.028;92.904;2023-04-24T02:41:57;17.87;;;7.43;;
42886;SDS011;29032;56.028;92.904;2023-04-24T02:47:00;24.17;;;7.90;;
42886;SDS011;29032;56.028;92.904;2023-04-24T02:52:02;14.07;;;6.83;;
42886;SDS011;29032;56.028;92.904;2023-04-24T02:57:05;21.03;;;7.13;;
42886;SDS011;29032;56.028;92.904;2023-04-24T03:02:07;10.90;;;7.00;;
42886;SDS011;29032;56.028;92.904;2023-04-24T03:07:09;20.70;;;7.50;;
42886;SDS011;29032;56.028;92.904;2023-04-24T03:12:13;9.20;;;6.63;;
42886;SDS011;29032;56.028;92.904;2023-04-24T03:17:15;10.70;;;6.10;;
42886;SDS011;29032;56.028;92.904;2023-04-24T03:22:18;18.43;;;6.63;;
42886;SDS011;29032;56.028;92.904;2023-04-24T03:27:22;15.60;;;6.07;;
42886;SDS011;29032;56.028;92.904;2023-04-24T03:32:34;11.40;;;6.00;;
42886;SDS011;29032;56.028;92.904;2023-04-24T03:37:37;13.70;;;6.13;;
42886;SDS011;29032;56.028;92.904;2023-04-24T03:43:15;17.97;;;6.57;;
42886;SDS011;29032;56.028;92.904;2023-04-24T03:48:18;14.30;;;7.40;;
42886;SDS011;29032;56.028;92.904;2023-04-24T03:53:20;14.37;;;7.33;;
42886;SDS011;29032;56.028;92.904;2023-04-24T03:58:25;13.50;;;7.03;;
42886;SDS011;29032;56.028;92.904;2023-04-24T04:03:46;18.87;;;7.43;;
42886;SDS011;29032;56.028;92.904;2023-04-24T04:08:51;22.63;;;7.53;;
42886;SDS011;29032;56.028;92.904;2023-04-24T04:13:55;19.97;;;7.67;;
42886;SDS011;29032;56.028;92.904;2023-04-24T04:24:18;13.50;;;5.87;;
42886;SDS011;29032;56.028;92.904;2023-04-24T04:29:22;16.73;;;6.00;;
42886;SDS011;29032;56.028;92.904;2023-04-24T04:34:26;7.00;;;4.33;;
42886;SDS011;29032;56.028;92.904;2023-04-24T04:39:46;5.83;;;4.10;;
42886;SDS011;29032;56.028;92.904;2023-04-24T04:44:56;17.23;;;6.00;;
42886;SDS011;29032;56.028;92.904;2023-04-24T04:50:07;9.50;;;3.70;;
42886;SDS011;29032;56.028;92.904;2023-04-24T05:00:42;7.37;;;3.70;;
42886;SDS011;29032;56.028;92.904;2023-04-24T05:05:57;7.17;;;4.20;;
42886;SDS011;29032;56.028;92.904;2023-04-24T05:11:00;7.83;;;4.27;;
42886;SDS011;29032;56.028;92.904;2023-04-24T05:16:06;5.33;;;4.00;;
42886;SDS011;29032;56.028;92.904;2023-04-24T05:21:08;7.40;;;3.90;;
42886;SDS011;29032;56.028;92.904;2023-04-24T05:26:13;5.17;;;3.03;;
42886;SDS011;29032;56.028;92.904;2023-04-24T05:31:54;9.27;;;3.17;;
42886;SDS011;29032;56.028;92.904;2023-04-24T05:36:57;7.70;;;3.40;;
42886;SDS011;29032;56.028;92.904;2023-04-24T05:42:00;6.87;;;2.90;;
42886;SDS011;29032;56.028;92.904;2023-04-24T05:47:22;4.33;;;3.00;;
42886;SDS011;29032;56.028;92.904;2023-04-24T05:52:26;6.53;;;3.40;;
42886;SDS011;29032;56.028;92.904;2023-04-24T06:02:50;5.50;;;2.33;;
42886;SDS011;29032;56.028;92.904;2023-04-24T06:07:52;7.00;;;2.43;;
42886;SDS011;29032;56.028;92.904;2023-04-24T06:18:55;7.67;;;2.30;;
42886;SDS011;29032;56.028;92.904;2023-04-24T06:23:57;3.77;;;1.80;;
42886;SDS011;29032;56.028;92.904;2023-04-24T06:28:59;4.27;;;2.13;;
42886;SDS011;29032;56.028;92.904;2023-04-24T06:39:23;3.40;;;2.10;;
42886;SDS011;29032;56.028;92.904;2023-04-24T06:44:25;2.83;;;1.70;;
42886;SDS011;29032;56.028;92.904;2023-04-24T06:49:28;4.23;;;1.90;;
42886;SDS011;29032;56.028;92.904;2023-04-24T06:54:31;6.07;;;2.10;;
42886;SDS011;29032;56.028;92.904;2023-04-24T06:59:33;5.70;;;2.77;;
42886;SDS011;29032;56.028;92.904;2023-04-24T07:04:36;4.10;;;1.60;;
42886;SDS011;29032;56.028;92.904;2023-04-24T07:09:57;4.53;;;1.80;;
42886;SDS011;29032;56.028;92.904;2023-04-24T07:14:59;6.10;;;1.60;;
42886;SDS011;29032;56.028;92.904;2023-04-24T07:20:03;2.77;;;1.63;;
42886;SDS011;29032;56.028;92.904;2023-04-24T07:25:06;1.83;;;1.53;;
42886;SDS011;29032;56.028;92.904;2023-04-24T07:30:27;2.97;;;2.07;;
42886;SDS011;29032;56.028;92.904;2023-04-24T07:35:31;5.43;;;1.80;;
42886;SDS011;29032;56.028;92.904;2023-04-24T07:40:34;2.23;;;1.53;;
42886;SDS011;29032;56.028;92.904;2023-04-24T07:50:58;6.47;;;1.90;;
42886;SDS011;29032;56.028;92.904;2023-04-24T08:07:00;4.47;;;1.70;;
42886;SDS011;29032;56.028;92.904;2023-04-24T08:12:20;4.70;;;1.47;;
42886;SDS011;29032;56.028;92.904;2023-04-24T08:22:44;3.78;;;1.92;;
42886;SDS011;29032;56.028;92.904;2023-04-24T08:27:46;5.10;;;1.83;;
42886;SDS011;29032;56.028;92.904;2023-04-24T08:32:48;4.90;;;1.80;;
42886;SDS011;29032;56.028;92.904;2023-04-24T08:37:52;3.50;;;1.73;;
42886;SDS011;29032;56.028;92.904;2023-04-24T08:43:12;3.72;;;1.60;;
42886;SDS011;29032;56.028;92.904;2023-04-24T08:59:16;4.30;;;1.83;;
42886;SDS011;29032;56.028;92.904;2023-04-24T09:04:18;9.00;;;1.80;;
42886;SDS011;29032;56.028;92.904;2023-04-24T09:14:45;6.30;;;1.77;;
42886;SDS011;29032;56.028;92.904;2023-04-24T09:19:47;6.50;;;2.38;;
42886;SDS011;29032;56.028;92.904;2023-04-24T09:30:33;5.00;;;2.20;;
42886;SDS011;29032;56.028;92.904;2023-04-24T09:35:35;4.20;;;2.07;;
42886;SDS011;29032;56.028;92.904;2023-04-24T09:40:39;4.07;;;1.87;;
42886;SDS011;29032;56.028;92.904;2023-04-24T09:45:41;5.33;;;2.30;;
42886;SDS011;29032;56.028;92.904;2023-04-24T09:51:01;3.13;;;1.80;;
42886;SDS011;29032;56.028;92.904;2023-04-24T09:56:25;4.07;;;1.67;;
42886;SDS011;29032;56.028;92.904;2023-04-24T10:01:30;5.23;;;1.60;;
42886;SDS011;29032;56.028;92.904;2023-04-24T10:06:52;7.20;;;2.10;;
42886;SDS011;29032;56.028;92.904;2023-04-24T10:11:57;6.30;;;2.17;;
42886;SDS011;29032;56.028;92.904;2023-04-24T10:17:00;5.57;;;3.67;;
42886;SDS011;29032;56.028;92.904;2023-04-24T10:22:02;4.70;;;2.00;;
42886;SDS011;29032;56.028;92.904;2023-04-24T10:27:07;4.73;;;1.80;;
42886;SDS011;29032;56.028;92.904;2023-04-24T10:32:10;3.70;;;1.87;;
42886;SDS011;29032;56.028;92.904;2023-04-24T10:37:12;5.67;;;1.57;;
42886;SDS011;29032;56.028;92.904;2023-04-24T10:42:16;5.23;;;1.60;;
42886;SDS011;29032;56.028;92.904;2023-04-24T10:47:18;5.80;;;1.60;;
42886;SDS011;29032;56.028;92.904;2023-04-24T10:52:20;4.63;;;1.77;;
42886;SDS011;29032;56.028;92.904;2023-04-24T10:57:27;9.53;;;2.03;;
42886;SDS011;29032;56.028;92.904;2023-04-24T11:02:35;4.37;;;1.87;;
42886;SDS011;29032;56.028;92.904;2023-04-24T11:13:20;5.83;;;2.20;;
42886;SDS011;29032;56.028;92.904;2023-04-24T11:23:44;6.47;;;1.90;;
42886;SDS011;29032;56.028;92.904;2023-04-24T11:28:48;2.53;;;1.57;;
42886;SDS011;29032;56.028;92.904;2023-04-24T11:33:51;6.03;;;1.87;;
42886;SDS011;29032;56.028;92.904;2023-04-24T11:38:54;4.63;;;2.27;;
42886;SDS011;29032;56.028;92.904;2023-04-24T11:49:21;5.13;;;1.90;;
42886;SDS011;29032;56.028;92.904;2023-04-24T11:54:23;1.90;;;1.70;;
42886;SDS011;29032;56.028;92.904;2023-04-24T11:59:27;4.87;;;1.43;;
42886;SDS011;29032;56.028;92.904;2023-04-24T12:04:37;3.50;;;1.60;;
42886;SDS011;29032;56.028;92.904;2023-04-24T12:09:59;2.53;;;1.27;;
42886;SDS011;29032;56.028;92.904;2023-04-24T12:15:06;7.30;;;1.80;;
42886;SDS011;29032;56.028;92.904;2023-04-24T12:20:09;3.87;;;1.70;;
42886;SDS011;29032;56.028;92.904;2023-04-24T12:25:12;4.67;;;1.63;;
42886;SDS011;29032;56.028;92.904;2023-04-24T12:30:17;9.77;;;2.20;;
42886;SDS011;29032;56.028;92.904;2023-04-24T12:35:39;8.23;;;2.37;;
42886;SDS011;29032;56.028;92.904;2023-04-24T12:41:03;5.67;;;1.63;;
42886;SDS011;29032;56.028;92.904;2023-04-24T12:46:08;4.35;;;1.80;;
42886;SDS011;29032;56.028;92.904;2023-04-24T12:51:10;7.07;;;2.53;;
42886;SDS011;29032;56.028;92.904;2023-04-24T12:56:12;3.20;;;2.47;;
42886;SDS011;29032;56.028;92.904;2023-04-24T13:01:16;11.93;;;4.00;;
42886;SDS011;29032;56.028;92.904;2023-04-24T13:06:18;11.23;;;3.70;;
42886;SDS011;29032;56.028;92.904;2023-04-24T13:11:20;20.00;;;6.23;;
42886;SDS011;29032;56.028;92.904;2023-04-24T13:16:23;16.40;;;4.50;;
42886;SDS011;29032;56.028;92.904;2023-04-24T13:21:25;33.93;;;5.77;;
42886;SDS011;29032;56.028;92.904;2023-04-24T13:26:27;18.73;;;4.70;;
42886;SDS011;29032;56.028;92.904;2023-04-24T13:31:49;16.13;;;4.73;;
42886;SDS011;29032;56.028;92.904;2023-04-24T13:37:10;10.83;;;4.23;;
42886;SDS011;29032;56.028;92.904;2023-04-24T13:42:12;14.43;;;4.13;;
42886;SDS011;29032;56.028;92.904;2023-04-24T13:47:16;12.60;;;4.70;;
42886;SDS011;29032;56.028;92.904;2023-04-24T13:52:19;17.97;;;5.33;;
42886;SDS011;29032;56.028;92.904;2023-04-24T13:57:21;42.03;;;7.53;;
42886;SDS011;29032;56.028;92.904;2023-04-24T14:02:25;23.00;;;5.93;;
42886;SDS011;29032;56.028;92.904;2023-04-24T14:07:45;26.77;;;5.97;;
42886;SDS011;29032;56.028;92.904;2023-04-24T14:12:47;29.77;;;6.67;;
42886;SDS011;29032;56.028;92.904;2023-04-24T14:18:09;19.67;;;7.00;;
42886;SDS011;29032;56.028;92.904;2023-04-24T14:23:29;20.00;;;7.23;;
42886;SDS011;29032;56.028;92.904;2023-04-24T14:28:32;37.47;;;9.67;;
42886;SDS011;29032;56.028;92.904;2023-04-24T14:38:57;34.03;;;9.10;;
42886;SDS011;29032;56.028;92.904;2023-04-24T14:43:59;28.40;;;8.93;;
42886;SDS011;29032;56.028;92.904;2023-04-24T14:49:03;30.87;;;13.70;;
42886;SDS011;29032;56.028;92.904;2023-04-24T14:54:05;39.17;;;13.80;;
42886;SDS011;29032;56.028;92.904;2023-04-24T14:59:07;34.00;;;15.30;;
42886;SDS011;29032;56.028;92.904;2023-04-24T15:04:11;48.47;;;19.37;;
42886;SDS011;29032;56.028;92.904;2023-04-24T15:09:32;42.40;;;20.10;;
42886;SDS011;29032;56.028;92.904;2023-04-24T15:14:34;41.33;;;18.10;;
42886;SDS011;29032;56.028;92.904;2023-04-24T15:19:55;38.40;;;17.23;;
42886;SDS011;29032;56.028;92.904;2023-04-24T15:24:58;34.20;;;16.50;;
42886;SDS011;29032;56.028;92.904;2023-04-24T15:30:00;51.47;;;15.83;;
42886;SDS011;29032;56.028;92.904;2023-04-24T15:35:04;26.87;;;11.80;;
42886;SDS011;29032;56.028;92.904;2023-04-24T15:40:07;17.47;;;8.70;;
42886;SDS011;29032;56.028;92.904;2023-04-24T15:56:09;21.10;;;10.70;;
42886;SDS011;29032;56.028;92.904;2023-04-24T16:01:30;19.27;;;9.53;;
42886;SDS011;29032;56.028;92.904;2023-04-24T16:06:36;21.43;;;10.13;;
42886;SDS011;29032;56.028;92.904;2023-04-24T16:11:38;13.83;;;8.20;;
42886;SDS011;29032;56.028;92.904;2023-04-24T16:22:03;22.33;;;9.17;;
42886;SDS011;29032;56.028;92.904;2023-04-24T16:32:25;12.77;;;6.07;;
42886;SDS011;29032;56.028;92.904;2023-04-24T16:42:35;6.80;;;4.67;;
42886;SDS011;29032;56.028;92.904;2023-04-24T16:47:56;11.33;;;5.97;;
42886;SDS011;29032;56.028;92.904;2023-04-24T16:53:00;10.13;;;7.50;;
42886;SDS011;29032;56.028;92.904;2023-04-24T16:58:02;6.70;;;5.07;;
42886;SDS011;29032;56.028;92.904;2023-04-24T17:03:04;7.70;;;4.47;;
42886;SDS011;29032;56.028;92.904;2023-04-24T17:08:26;9.90;;;6.30;;
42886;SDS011;29032;56.028;92.904;2023-04-24T17:13:46;10.13;;;6.33;;
42886;SDS011;29032;56.028;92.904;2023-04-24T17:18:48;12.57;;;6.43;;
42886;SDS011;29032;56.028;92.904;2023-04-24T17:23:52;12.67;;;5.73;;
42886;SDS011;29032;56.028;92.904;2023-04-24T17:28:54;9.87;;;6.17;;
42886;SDS011;29032;56.028;92.904;2023-04-24T17:39:36;7.63;;;5.20;;
42886;SDS011;29032;56.028;92.904;2023-04-24T17:44:38;7.23;;;4.63;;
42886;SDS011;29032;56.028;92.904;2023-04-24T17:49:40;8.13;;;4.97;;
42886;SDS011;29032;56.028;92.904;2023-04-24T17:55:01;9.83;;;5.70;;
42886;SDS011;29032;56.028;92.904;2023-04-24T18:05:24;9.87;;;4.93;;
42886;SDS011;29032;56.028;92.904;2023-04-24T18:10:28;8.30;;;5.03;;
42886;SDS011;29032;56.028;92.904;2023-04-24T18:20:52;10.47;;;6.10;;
42886;SDS011;29032;56.028;92.904;2023-04-24T18:25:55;9.17;;;5.93;;
42886;SDS011;29032;56.028;92.904;2023-04-24T18:30:58;12.13;;;5.33;;
42886;SDS011;29032;56.028;92.904;2023-04-24T18:36:00;10.10;;;4.97;;
42886;SDS011;29032;56.028;92.904;2023-04-24T18:41:03;10.07;;;5.13;;
42886;SDS011;29032;56.028;92.904;2023-04-24T18:46:24;12.97;;;5.70;;
42886;SDS011;29032;56.028;92.904;2023-04-24T18:51:26;13.40;;;5.87;;
42886;SDS011;29032;56.028;92.904;2023-04-24T18:56:29;14.37;;;6.77;;
42886;SDS011;29032;56.028;92.904;2023-04-24T19:01:31;14.17;;;5.30;;
42886;SDS011;29032;56.028;92.904;2023-04-24T19:06:34;13.73;;;6.67;;
42886;SDS011;29032;56.028;92.904;2023-04-24T19:11:55;11.03;;;5.20;;
42886;SDS011;29032;56.028;92.904;2023-04-24T19:16:57;8.80;;;5.80;;
42886;SDS011;29032;56.028;92.904;2023-04-24T19:22:18;8.70;;;4.23;;
42886;SDS011;29032;56.028;92.904;2023-04-24T19:27:21;11.00;;;4.77;;
42886;SDS011;29032;56.028;92.904;2023-04-24T19:32:23;9.37;;;4.87;;
42886;SDS011;29032;56.028;92.904;2023-04-24T19:37:25;9.30;;;4.73;;
42886;SDS011;29032;56.028;92.904;2023-04-24T19:42:29;5.93;;;4.37;;
42886;SDS011;29032;56.028;92.904;2023-04-24T19:47:31;7.13;;;4.43;;
42886;SDS011;29032;56.028;92.904;2023-04-24T19:52:33;9.00;;;4.13;;
42886;SDS011;29032;56.028;92.904;2023-04-24T19:58:13;10.35;;;3.80;;
42886;SDS011;29032;56.028;92.904;2023-04-24T20:03:15;27.37;;;17.13;;
42886;SDS011;29032;56.028;92.904;2023-04-24T20:08:17;16.43;;;8.87;;
42886;SDS011;29032;56.028;92.904;2023-04-24T20:18:41;12.07;;;7.17;;
42886;SDS011;29032;56.028;92.904;2023-04-24T20:23:43;80.40;;;44.00;;
42886;SDS011;29032;56.028;92.904;2023-04-24T20:28:47;60.23;;;30.53;;
42886;SDS011;29032;56.028;92.904;2023-04-24T20:33:49;38.53;;;18.93;;
42886;SDS011;29032;56.028;92.904;2023-04-24T20:44:12;16.20;;;7.97;;
42886;SDS011;29032;56.028;92.904;2023-04-24T20:54:34;8.83;;;6.33;;
42886;SDS011;29032;56.028;92.904;2023-04-24T20:59:38;10.47;;;5.60;;
42886;SDS011;29032;56.028;92.904;2023-04-24T21:04:40;8.07;;;4.37;;
42886;SDS011;29032;56.028;92.904;2023-04-24T21:10:00;7.27;;;3.50;;
42886;SDS011;29032;56.028;92.904;2023-04-24T21:15:05;6.77;;;4.57;;
42886;SDS011;29032;56.028;92.904;2023-04-24T21:20:08;7.73;;;3.37;;
42886;SDS011;29032;56.028;92.904;2023-04-24T21:25:29;15.00;;;3.97;;
42886;SDS011;29032;56.028;92.904;2023-04-24T21:30:33;8.93;;;3.90;;
42886;SDS011;29032;56.028;92.904;2023-04-24T21:40:55;7.80;;;4.03;;
42886;SDS011;29032;56.028;92.904;2023-04-24T21:45:58;9.07;;;4.23;;
42886;SDS011;29032;56.028;92.904;2023-04-24T21:51:19;9.10;;;3.90;;
42886;SDS011;29032;56.028;92.904;2023-04-24T21:56:21;6.87;;;3.20;;
42886;SDS011;29032;56.028;92.904;2023-04-24T22:01:24;3.77;;;2.70;;
42886;SDS011;29032;56.028;92.904;2023-04-24T22:06:26;8.83;;;3.50;;
42886;SDS011;29032;56.028;92.904;2023-04-24T22:11:35;6.27;;;2.87;;
42886;SDS011;29032;56.028;92.904;2023-04-24T22:16:56;4.20;;;2.93;;
42886;SDS011;29032;56.028;92.904;2023-04-24T22:21:58;4.07;;;2.77;;
42886;SDS011;29032;56.028;92.904;2023-04-24T22:27:19;6.37;;;3.87;;
42886;SDS011;29032;56.028;92.904;2023-04-24T22:32:40;7.93;;;4.13;;
42886;SDS011;29032;56.028;92.904;2023-04-24T22:37:42;6.23;;;3.57;;
42886;SDS011;29032;56.028;92.904;2023-04-24T22:42:45;6.77;;;3.50;;
42886;SDS011;29032;56.028;92.904;2023-04-24T22:47:48;3.10;;;2.50;;
42886;SDS011;29032;56.028;92.904;2023-04-24T22:52:51;6.63;;;2.50;;
42886;SDS011;29032;56.028;92.904;2023-04-24T22:57:53;3.83;;;2.70;;
42886;SDS011;29032;56.028;92.904;2023-04-24T23:02:57;3.57;;;2.73;;
42886;SDS011;29032;56.028;92.904;2023-04-24T23:07:59;3.87;;;2.33;;
42886;SDS011;29032;56.028;92.904;2023-04-24T23:13:01;6.83;;;3.57;;
42886;SDS011;29032;56.028;92.904;2023-04-24T23:18:23;6.07;;;2.67;;
42886;SDS011;29032;56.028;92.904;2023-04-24T23:23:25;8.20;;;4.13;;
42886;SDS011;29032;56.028;92.904;2023-04-24T23:28:46;6.50;;;3.83;;
42886;SDS011;29032;56.028;92.904;2023-04-24T23:33:50;6.10;;;4.03;;
42886;SDS011;29032;56.028;92.904;2023-04-24T23:39:10;3.53;;;2.87;;
42886;SDS011;29032;56.028;92.904;2023-04-24T23:44:12;3.17;;;2.40;;
42886;SDS011;29032;56.028;92.904;2023-04-24T23:49:15;5.03;;;2.97;;
42886;SDS011;29032;56.028;92.904;2023-04-24T23:54:36;2.97;;;2.40;;
42886;SDS011;29032;56.028;92.904;2023-04-24T23:59:38;7.77;;;2.80;;
